Time;durP1;ratioP1;P1;durP2;ratioP2;P2;SDS_P1;SDS_P2;PMS_P1;PMS_P2;Temp;Humidity;BMP_temperature;BMP_pressure;BME280_temperature;BME280_humidity;BME280_pressure;Samples;Min_cycle;Max_cycle;Signal;HPM_P1;HPM_P2
2022/04/11 00:00:49;;;;;;;3.75;1.70;;;;;;;7.27;62.11;100204.63;5089994;28;20093;-61
2022/04/11 00:03:15;;;;;;;3.13;1.40;;;;;;;7.28;62.02;100200.22;5090401;28;20044;-62
2022/04/11 00:05:42;;;;;;;2.20;1.20;;;;;;;7.26;62.01;100205.50;5092503;28;20086;-62
2022/04/11 00:08:09;;;;;;;3.35;1.42;;;;;;;7.26;62.09;100200.25;5094068;28;20056;-61
2022/04/11 00:10:35;;;;;;;5.53;1.90;;;;;;;7.24;61.92;100196.84;5093750;28;20488;-62
2022/04/11 00:13:06;;;;;;;5.30;1.70;;;;;;;7.22;61.71;100195.22;5094018;28;20100;-61
2022/04/11 00:15:38;;;;;;;5.47;2.05;;;;;;;7.22;62.05;100190.81;5093774;28;20455;-61
2022/04/11 00:18:05;;;;;;;4.05;2.05;;;;;;;7.22;62.03;100189.97;5093876;28;20462;-61
2022/04/11 00:20:33;;;;;;;6.38;2.22;;;;;;;7.20;61.77;100194.41;5092275;28;20050;-61
2022/04/11 00:23:00;;;;;;;4.88;2.13;;;;;;;7.19;62.41;100190.06;5092477;28;20097;-60
2022/04/11 00:25:26;;;;;;;4.82;2.08;;;;;;;7.16;62.23;100183.19;5093680;28;20101;-61
2022/04/11 00:27:53;;;;;;;4.95;2.30;;;;;;;7.14;62.49;100185.84;5093414;28;20056;-61
2022/04/11 00:30:19;;;;;;;7.95;2.60;;;;;;;7.13;62.50;100185.91;5093183;28;20048;-60
2022/04/11 00:32:46;;;;;;;4.68;1.95;;;;;;;7.11;62.60;100180.72;5093367;28;20055;-61
2022/04/11 00:35:13;;;;;;;3.55;2.20;;;;;;;7.10;62.51;100183.41;5093491;28;20542;-61
2022/04/11 00:37:40;;;;;;;6.72;2.28;;;;;;;7.09;62.26;100181.69;5093238;28;20573;-60
2022/04/11 00:40:08;;;;;;;7.15;2.58;;;;;;;7.05;62.37;100173.09;5093021;28;20051;-61
2022/04/11 00:42:35;;;;;;;8.90;2.53;;;;;;;7.04;62.40;100179.25;5091964;28;20062;-61
2022/04/11 00:45:03;;;;;;;4.82;2.25;;;;;;;7.02;62.25;100173.19;5093282;28;20574;-60
2022/04/11 00:47:30;;;;;;;5.38;2.40;;;;;;;7.00;62.27;100180.28;5093313;28;20484;-60
2022/04/11 00:50:00;;;;;;;6.65;2.63;;;;;;;6.95;61.99;100182.19;5093174;28;20048;-62
2022/04/11 00:52:31;;;;;;;7.50;2.50;;;;;;;6.94;62.07;100175.22;5091897;28;20106;-60
2022/04/11 00:54:58;;;;;;;4.22;2.50;;;;;;;6.93;62.56;100177.00;5093288;28;20052;-60
2022/04/11 00:57:26;;;;;;;7.47;2.92;;;;;;;6.91;62.67;100171.81;5091856;28;20066;-61
2022/04/11 00:59:53;;;;;;;7.15;2.78;;;;;;;6.89;62.55;100176.25;5091799;28;20067;-60
2022/04/11 01:02:20;;;;;;;7.22;3.25;;;;;;;6.88;62.44;100173.72;5093063;28;20097;-61
2022/04/11 01:04:47;;;;;;;4.93;2.55;;;;;;;6.87;62.39;100177.22;5092974;28;20048;-62
2022/04/11 01:07:15;;;;;;;4.47;2.75;;;;;;;6.85;62.92;100171.19;5092883;28;20048;-61
2022/04/11 01:09:42;;;;;;;4.43;2.78;;;;;;;6.83;62.52;100167.75;5092646;28;20048;-61
2022/04/11 01:12:11;;;;;;;4.93;2.88;;;;;;;6.80;62.59;100167.88;5093021;28;20485;-61
2022/04/11 01:14:38;;;;;;;3.85;2.30;;;;;;;6.77;62.35;100169.69;5092736;28;20048;-61
2022/04/11 01:17:04;;;;;;;6.82;3.08;;;;;;;6.74;62.40;100168.94;5092016;28;20048;-60
2022/04/11 01:19:31;;;;;;;5.50;2.75;;;;;;;6.70;62.42;100164.72;5092360;28;20105;-61
2022/04/11 01:21:58;;;;;;;4.30;2.80;;;;;;;6.66;62.29;100169.22;5092423;28;20081;-62
2022/04/11 01:24:25;;;;;;;5.00;2.67;;;;;;;6.62;62.53;100165.81;5092285;28;20105;-60
2022/04/11 01:26:52;;;;;;;6.10;2.83;;;;;;;6.60;62.43;100166.78;5092172;28;20396;-60
2022/04/11 01:29:19;;;;;;;5.47;2.65;;;;;;;6.56;62.46;100168.66;5092429;28;20071;-61
2022/04/11 01:31:46;;;;;;;8.50;2.70;;;;;;;6.53;62.50;100163.53;5092329;28;20040;-60
2022/04/11 01:34:13;;;;;;;3.88;2.50;;;;;;;6.49;62.57;100160.16;5092197;28;20106;-60
2022/04/11 01:36:39;;;;;;;5.47;2.80;;;;;;;6.47;62.60;100156.75;5092289;28;20074;-60
2022/04/11 01:39:06;;;;;;;6.30;2.70;;;;;;;6.44;62.34;100156.00;5091986;28;20044;-62
2022/04/11 01:41:32;;;;;;;7.18;2.70;;;;;;;6.43;62.34;100154.28;5091990;28;20047;-61
2022/04/11 01:43:59;;;;;;;5.38;3.05;;;;;;;6.42;62.25;100155.22;5092293;28;20048;-61
2022/04/11 01:46:25;;;;;;;6.10;2.55;;;;;;;6.39;62.43;100153.53;5090781;28;20045;-60
2022/04/11 01:48:52;;;;;;;5.50;2.80;;;;;;;6.38;62.16;100151.81;5090880;28;20048;-63
2022/04/11 01:51:19;;;;;;;6.57;2.40;;;;;;;6.36;62.46;100149.25;5091706;28;20044;-62
2022/04/11 01:53:45;;;;;;;5.03;2.97;;;;;;;6.35;62.38;100149.28;5091670;28;20480;-61
2022/04/11 01:56:12;;;;;;;6.47;2.70;;;;;;;6.34;62.09;100156.31;5092118;28;20109;-61
2022/04/11 01:58:38;;;;;;;5.07;2.63;;;;;;;6.34;62.06;100152.81;5090626;28;20051;-63
2022/04/11 02:01:05;;;;;;;7.65;2.65;;;;;;;6.33;62.09;100149.38;5091457;28;20116;-61
2022/04/11 02:03:31;;;;;;;3.67;2.42;;;;;;;6.33;62.07;100145.91;5091608;28;20101;-61
2022/04/11 02:05:58;;;;;;;9.38;3.13;;;;;;;6.31;61.62;100150.34;5091571;28;20055;-62
2022/04/11 02:08:25;;;;;;;7.25;3.15;;;;;;;6.30;61.81;100145.97;5091878;28;20385;-61
2022/04/11 02:10:51;;;;;;;5.00;3.03;;;;;;;6.29;61.67;100139.06;5091573;28;20127;-61
2022/04/11 02:13:18;;;;;;;7.05;2.47;;;;;;;6.29;62.04;100145.16;5091342;28;20428;-61
2022/04/11 02:15:45;;;;;;;4.70;2.65;;;;;;;6.28;61.97;100139.97;5091611;28;20047;-63
2022/04/11 02:18:11;;;;;;;6.68;3.08;;;;;;;6.27;62.26;100133.88;5091407;28;20048;-61
2022/04/11 02:20:38;;;;;;;8.68;3.20;;;;;;;6.27;62.07;100136.50;5091006;28;20105;-61
2022/04/11 02:23:04;;;;;;;5.20;2.83;;;;;;;6.27;61.93;100138.25;5090348;28;20125;-61
2022/04/11 02:25:34;;;;;;;7.03;2.90;;;;;;;6.25;61.67;100138.31;5091439;28;20052;-62
2022/04/11 02:28:02;;;;;;;4.68;2.67;;;;;;;6.26;61.93;100137.41;5090479;28;20117;-61
2022/04/11 02:30:29;;;;;;;7.07;3.05;;;;;;;6.24;61.86;100140.06;5091099;28;20048;-61
2022/04/11 02:32:55;;;;;;;7.18;3.25;;;;;;;6.24;61.54;100139.19;5091153;28;20443;-61
2022/04/11 02:35:23;;;;;;;6.88;2.97;;;;;;;6.24;61.85;100137.44;5091012;28;20063;-61
2022/04/11 02:37:50;;;;;;;5.45;2.80;;;;;;;6.22;61.99;100134.03;5090001;28;20055;-61
2022/04/11 02:40:17;;;;;;;7.22;3.15;;;;;;;6.21;61.64;100137.53;5089869;28;20390;-60
2022/04/11 02:42:44;;;;;;;9.15;3.75;;;;;;;6.20;61.77;100140.22;5090915;28;20116;-62
2022/04/11 02:45:12;;;;;;;3.75;2.90;;;;;;;6.18;61.43;100139.41;5091011;28;20568;-61
2022/04/11 02:47:39;;;;;;;6.75;3.25;;;;;;;6.16;61.46;100133.38;5089558;28;20105;-61
2022/04/11 02:50:07;;;;;;;5.00;3.00;;;;;;;6.14;61.82;100125.59;5089777;28;20101;-62
2022/04/11 02:52:33;;;;;;;7.00;3.83;;;;;;;6.15;61.73;100129.03;5089955;28;20047;-61
2022/04/11 02:55:00;;;;;;;4.50;3.42;;;;;;;6.11;61.82;100118.72;5090806;28;20090;-60
2022/04/11 02:57:29;;;;;;;4.82;3.40;;;;;;;6.12;61.72;100130.00;5090776;28;20059;-60
2022/04/11 02:59:56;;;;;;;7.63;4.13;;;;;;;6.11;61.81;100129.16;5089289;28;20129;-60
2022/04/11 03:02:23;;;;;;;6.07;3.40;;;;;;;6.10;61.93;100127.44;5090573;28;20052;-60
2022/04/11 03:04:50;;;;;;;9.65;3.75;;;;;;;6.11;62.16;100130.91;5090574;28;20488;-61
2022/04/11 03:07:16;;;;;;;6.15;3.80;;;;;;;6.09;61.96;100127.50;5090610;28;20048;-60
2022/04/11 03:09:43;;;;;;;7.47;3.65;;;;;;;6.08;61.66;100131.00;5090291;28;20059;-60
2022/04/11 03:12:10;;;;;;;8.23;3.60;;;;;;;6.06;62.00;100128.44;5089603;28;20044;-60
2022/04/11 03:14:36;;;;;;;9.90;3.72;;;;;;;6.05;62.10;100131.97;5090626;28;20550;-61
2022/04/11 03:17:04;;;;;;;4.97;3.63;;;;;;;6.04;61.88;100137.22;5090452;28;20051;-61
2022/04/11 03:19:30;;;;;;;8.80;4.20;;;;;;;6.02;62.01;100137.25;5090541;28;20105;-62
2022/04/11 03:21:58;;;;;;;5.70;3.78;;;;;;;6.01;61.96;100135.53;5089468;28;20070;-61
2022/04/11 03:24:25;;;;;;;8.38;4.03;;;;;;;6.00;61.99;100136.44;5090690;28;20105;-61
2022/04/11 03:26:51;;;;;;;5.72;3.75;;;;;;;5.99;62.17;100135.59;5090290;28;20101;-62
2022/04/11 03:29:18;;;;;;;7.07;3.97;;;;;;;5.98;61.84;100139.09;5088920;28;20144;-61
2022/04/11 03:31:46;;;;;;;7.55;3.92;;;;;;;5.99;62.17;100142.59;5090738;28;20048;-62
2022/04/11 03:34:13;;;;;;;9.10;3.95;;;;;;;5.99;61.95;100140.81;5089058;28;20163;-61
2022/04/11 03:36:39;;;;;;;11.55;4.20;;;;;;;5.98;62.01;100136.50;5090536;28;20047;-61
2022/04/11 03:39:06;;;;;;;7.78;3.83;;;;;;;5.99;62.14;100148.66;5090802;28;20055;-61
2022/04/11 03:41:33;;;;;;;6.95;4.13;;;;;;;5.99;61.83;100145.19;5094362;28;20051;-61
2022/04/11 03:43:59;;;;;;;6.32;3.97;;;;;;;5.97;61.79;100142.63;5094306;28;20051;-61
2022/04/11 03:46:27;;;;;;;9.68;4.30;;;;;;;5.97;61.70;100136.53;5094638;28;20442;-61
2022/04/11 03:48:54;;;;;;;10.13;5.40;;;;;;;5.95;61.63;100133.13;5094480;28;20056;-62
2022/04/11 03:51:21;;;;;;;11.20;5.07;;;;;;;5.94;61.77;100132.28;5092934;28;20056;-61
2022/04/11 03:53:48;;;;;;;10.80;5.20;;;;;;;5.92;61.68;100133.22;5094137;28;20052;-61
2022/04/11 03:56:17;;;;;;;12.30;6.68;;;;;;;5.91;61.59;100128.91;5094258;28;20468;-61
2022/04/11 03:58:44;;;;;;;13.70;6.70;;;;;;;5.90;61.51;100127.22;5092746;28;20071;-61
2022/04/11 04:01:11;;;;;;;17.33;7.38;;;;;;;5.89;61.55;100133.31;5094251;28;20404;-61
2022/04/11 04:03:37;;;;;;;10.88;5.38;;;;;;;5.85;61.63;100122.97;5094013;28;20048;-61
2022/04/11 04:06:04;;;;;;;10.40;5.85;;;;;;;5.84;61.64;100130.88;5094077;28;20052;-61
2022/04/11 04:08:31;;;;;;;11.35;4.70;;;;;;;5.80;61.56;100124.84;5093959;28;20052;-61
2022/04/11 04:10:57;;;;;;;6.63;4.10;;;;;;;5.78;61.90;100126.69;5093579;28;20101;-61
2022/04/11 04:13:25;;;;;;;7.32;3.58;;;;;;;5.77;61.58;100131.94;5094140;28;20056;-61
2022/04/11 04:15:52;;;;;;;10.80;4.40;;;;;;;5.74;61.71;100130.28;5093812;28;20048;-61
2022/04/11 04:18:19;;;;;;;7.57;4.05;;;;;;;5.72;61.59;100117.28;5093903;28;20382;-61
2022/04/11 04:20:46;;;;;;;7.18;4.50;;;;;;;5.70;61.55;100124.31;5093504;28;20048;-62
2022/04/11 04:23:13;;;;;;;10.48;4.40;;;;;;;5.68;61.66;100126.09;5093653;28;20044;-60
2022/04/11 04:25:39;;;;;;;8.38;4.15;;;;;;;5.67;61.60;100121.78;5093489;28;20718;-61
2022/04/11 04:28:06;;;;;;;6.90;3.67;;;;;;;5.67;61.45;100126.16;5093591;28;20121;-62
2022/04/11 04:30:33;;;;;;;9.55;4.05;;;;;;;5.66;61.42;100121.81;5092217;28;20085;-61
2022/04/11 04:32:59;;;;;;;5.75;4.03;;;;;;;5.65;61.43;100121.00;5093456;28;20044;-61
2022/04/11 04:35:27;;;;;;;6.32;3.67;;;;;;;5.65;61.43;100121.00;5093481;28;20493;-61
2022/04/11 04:37:53;;;;;;;8.93;3.95;;;;;;;5.66;61.59;100124.44;5093637;28;20052;-61
2022/04/11 04:40:21;;;;;;;8.18;4.38;;;;;;;5.67;61.98;100123.53;5093007;28;20044;-62
2022/04/11 04:42:47;;;;;;;7.75;4.47;;;;;;;5.65;61.45;100117.50;5093679;28;20496;-60
2022/04/11 04:45:14;;;;;;;5.43;3.72;;;;;;;5.65;61.72;100125.34;5093099;28;20052;-62
2022/04/11 04:47:40;;;;;;;7.38;4.05;;;;;;;5.66;61.59;100127.06;5091903;28;20389;-61
2022/04/11 04:50:08;;;;;;;7.68;4.15;;;;;;;5.65;61.35;100130.56;5092151;28;20048;-61
2022/04/11 04:52:37;;;;;;;8.73;4.88;;;;;;;5.63;61.11;100130.63;5093141;28;20059;-61
2022/04/11 04:55:04;;;;;;;10.07;5.32;;;;;;;5.64;61.55;100145.38;5091925;28;20105;-60
2022/04/11 04:57:31;;;;;;;7.93;4.68;;;;;;;5.64;61.71;100141.94;5091987;28;20044;-61
2022/04/11 04:59:57;;;;;;;6.45;4.10;;;;;;;5.64;61.68;100144.53;5092919;28;20108;-61
2022/04/11 05:02:24;;;;;;;8.55;4.15;;;;;;;5.64;61.70;100134.09;5093278;28;20043;-61
2022/04/11 05:04:50;;;;;;;6.90;4.07;;;;;;;5.65;61.52;100144.50;5092954;28;20052;-62
2022/04/11 05:07:17;;;;;;;7.53;3.70;;;;;;;5.68;61.54;100143.53;5092824;28;20093;-60
2022/04/11 05:09:43;;;;;;;6.20;3.40;;;;;;;5.71;61.79;100153.88;5092401;28;20770;-61
2022/04/11 05:12:10;;;;;;;7.63;3.38;;;;;;;5.75;61.85;100155.50;5092621;28;20558;-61
2022/04/11 05:14:37;;;;;;;6.90;3.53;;;;;;;5.80;61.90;100152.75;5091680;28;20052;-63
2022/04/11 05:17:03;;;;;;;6.20;3.63;;;;;;;5.83;61.77;100156.13;5092782;28;20044;-61
2022/04/11 05:19:30;;;;;;;10.50;3.90;;;;;;;5.86;61.55;100150.81;5092596;28;20048;-61
2022/04/11 05:21:56;;;;;;;7.78;4.20;;;;;;;5.90;61.58;100146.34;5092470;28;20040;-60
2022/04/11 05:24:23;;;;;;;8.57;4.32;;;;;;;5.94;61.36;100149.72;5092704;28;20052;-61
2022/04/11 05:26:49;;;;;;;7.05;3.40;;;;;;;5.97;61.21;100147.00;5092573;28;20113;-61
2022/04/11 05:29:16;;;;;;;7.05;3.47;;;;;;;6.02;61.38;100144.25;5092312;28;20048;-61
2022/04/11 05:31:43;;;;;;;6.50;3.80;;;;;;;6.04;61.66;100138.09;5092488;28;20102;-60
2022/04/11 05:34:09;;;;;;;8.18;3.65;;;;;;;6.07;61.58;100135.41;5092436;28;20060;-61
2022/04/11 05:36:36;;;;;;;7.20;3.45;;;;;;;6.12;61.40;100145.69;5092306;28;20458;-60
2022/04/11 05:39:02;;;;;;;5.95;3.65;;;;;;;6.15;61.18;100142.13;5091493;28;20044;-60
2022/04/11 05:41:29;;;;;;;9.35;3.72;;;;;;;6.21;61.35;100149.78;5092412;28;20048;-62
2022/04/11 05:43:56;;;;;;;5.57;3.85;;;;;;;6.24;61.09;100147.03;5091882;28;20059;-62
2022/04/11 05:46:22;;;;;;;9.40;3.88;;;;;;;6.28;61.24;100145.19;5091875;28;20040;-60
2022/04/11 05:48:49;;;;;;;6.38;3.15;;;;;;;6.31;61.30;100150.34;5092123;28;20055;-62
2022/04/11 05:51:15;;;;;;;4.43;3.15;;;;;;;6.33;61.56;100141.53;5091848;28;20055;-63
2022/04/11 05:53:42;;;;;;;5.95;3.10;;;;;;;6.39;61.38;100153.53;5092227;28;20093;-62
2022/04/11 05:56:08;;;;;;;7.72;3.10;;;;;;;6.42;61.40;100155.22;5090721;28;20484;-61
2022/04/11 05:58:35;;;;;;;4.72;3.03;;;;;;;6.44;61.28;100156.88;5092054;28;20101;-61
2022/04/11 06:01:02;;;;;;;6.57;3.30;;;;;;;6.48;61.17;100155.84;5091850;28;20149;-63
2022/04/11 06:03:28;;;;;;;5.72;3.10;;;;;;;6.53;61.32;100153.06;5091836;28;20499;-62
2022/04/11 06:05:55;;;;;;;6.53;3.30;;;;;;;6.57;61.12;100149.44;5092027;28;20052;-61
2022/04/11 06:08:22;;;;;;;5.63;3.22;;;;;;;6.61;61.24;100151.06;5091913;28;20143;-63
2022/04/11 06:10:48;;;;;;;9.88;3.20;;;;;;;6.64;61.09;100150.09;5091871;28;20052;-62
2022/04/11 06:13:15;;;;;;;7.15;3.15;;;;;;;6.68;60.97;100148.22;5091889;28;20101;-61
2022/04/11 06:15:42;;;;;;;5.15;3.30;;;;;;;6.71;61.12;100148.13;5091734;28;20712;-61
2022/04/11 06:18:08;;;;;;;6.10;3.10;;;;;;;6.75;61.12;100144.47;5091653;28;20511;-61
2022/04/11 06:20:35;;;;;;;4.95;3.00;;;;;;;6.79;60.95;100146.09;5089808;28;20044;-61
2022/04/11 06:23:03;;;;;;;6.68;3.50;;;;;;;6.84;61.17;100143.31;5091482;28;20093;-60
2022/04/11 06:25:29;;;;;;;6.07;2.85;;;;;;;6.87;61.31;100141.44;5091493;28;20404;-60
2022/04/11 06:27:56;;;;;;;5.53;3.20;;;;;;;6.91;61.07;100142.19;5090478;28;20047;-60
2022/04/11 06:30:22;;;;;;;5.95;3.15;;;;;;;6.94;61.05;100142.06;5091009;28;20070;-63
2022/04/11 06:32:49;;;;;;;4.63;3.08;;;;;;;6.97;61.18;100134.13;5090815;28;20442;-61
2022/04/11 06:35:15;;;;;;;6.13;2.85;;;;;;;7.02;60.92;100133.94;5091162;28;20093;-60
2022/04/11 06:37:42;;;;;;;5.50;3.03;;;;;;;7.05;61.15;100139.06;5090452;28;20040;-61
2022/04/11 06:40:09;;;;;;;6.00;3.03;;;;;;;7.09;60.44;100132.81;5089297;28;20054;-62
2022/04/11 06:42:36;;;;;;;6.97;3.13;;;;;;;7.13;60.36;100126.56;5090219;28;20044;-60
2022/04/11 06:45:04;;;;;;;7.28;2.83;;;;;;;7.17;60.10;100133.41;5091230;28;20047;-62
2022/04/11 06:47:31;;;;;;;7.55;3.00;;;;;;;7.21;60.24;100136.75;5091047;28;20044;-61
2022/04/11 06:49:58;;;;;;;5.80;3.20;;;;;;;7.25;59.97;100137.50;5091178;28;20504;-61
2022/04/11 06:52:24;;;;;;;4.97;2.90;;;;;;;7.30;59.93;100140.81;5091072;28;20047;-62
2022/04/11 06:54:51;;;;;;;6.43;3.05;;;;;;;7.34;59.76;100145.00;5091138;28;20492;-61
2022/04/11 06:57:17;;;;;;;5.60;2.83;;;;;;;7.37;59.57;100144.88;5091289;28;20055;-61
2022/04/11 06:59:44;;;;;;;8.98;3.20;;;;;;;7.41;59.87;100145.63;5090816;28;20044;-59
2022/04/11 07:02:10;;;;;;;5.07;2.80;;;;;;;7.45;59.74;100143.75;5090503;28;20052;-62
2022/04/11 07:04:37;;;;;;;5.90;2.83;;;;;;;7.48;59.77;100135.78;5090536;28;20054;-61
2022/04/11 07:07:04;;;;;;;5.18;2.95;;;;;;;7.51;59.85;100133.06;5090694;28;20450;-62
2022/04/11 07:09:35;;;;;;;4.53;3.10;;;;;;;7.54;59.56;100136.41;5090625;28;20044;-60
2022/04/11 07:12:02;;;;;;;6.43;3.33;;;;;;;7.60;59.71;100137.06;5090623;28;20101;-61
2022/04/11 07:14:28;;;;;;;4.68;2.90;;;;;;;7.66;60.03;100136.81;5089977;28;20056;-61
2022/04/11 07:16:55;;;;;;;4.85;2.72;;;;;;;7.74;59.91;100140.00;5090622;28;20048;-61
2022/04/11 07:19:21;;;;;;;7.30;3.47;;;;;;;7.82;59.47;100137.09;5089282;28;20048;-63
2022/04/11 07:21:48;;;;;;;6.32;3.17;;;;;;;7.90;59.50;100137.66;5089417;28;20040;-61
2022/04/11 07:24:15;;;;;;;3.95;2.53;;;;;;;7.99;59.30;100143.44;5090687;28;20051;-61
2022/04/11 07:26:42;;;;;;;7.88;3.13;;;;;;;8.07;59.20;100143.97;5090521;28;20055;-64
2022/04/11 07:29:09;;;;;;;6.30;3.22;;;;;;;8.15;59.23;100144.50;5090250;28;20044;-62
2022/04/11 07:31:36;;;;;;;6.03;2.88;;;;;;;8.25;59.14;100146.75;5089757;28;20052;-63
2022/04/11 07:34:03;;;;;;;6.80;2.90;;;;;;;8.32;58.83;100145.59;5090774;28;20060;-61
2022/04/11 07:36:29;;;;;;;4.50;2.60;;;;;;;8.45;59.34;100148.56;5090431;28;20454;-61
2022/04/11 07:38:57;;;;;;;5.03;2.85;;;;;;;8.56;58.99;100153.41;5090565;28;20485;-62
2022/04/11 07:41:24;;;;;;;5.28;2.97;;;;;;;8.67;59.21;100145.91;5090137;28;20051;-61
2022/04/11 07:43:51;;;;;;;7.22;2.75;;;;;;;8.79;58.77;100141.88;5089447;28;20442;-60
2022/04/11 07:46:17;;;;;;;4.25;2.63;;;;;;;8.91;58.72;100143.16;5090273;28;20052;-62
2022/04/11 07:48:44;;;;;;;6.50;3.00;;;;;;;9.02;58.65;100145.31;5090536;28;20052;-62
2022/04/11 07:51:11;;;;;;;4.10;3.05;;;;;;;9.13;58.09;100140.41;5089969;28;20102;-61
2022/04/11 07:53:38;;;;;;;5.97;2.60;;;;;;;9.23;58.05;100150.50;5090381;28;20052;-61
2022/04/11 07:56:04;;;;;;;3.50;2.50;;;;;;;9.31;57.48;100147.53;5090371;28;20067;-62
2022/04/11 07:58:31;;;;;;;5.80;3.03;;;;;;;9.36;57.39;100150.81;5090583;28;20488;-62
2022/04/11 08:00:57;;;;;;;5.75;2.88;;;;;;;9.40;56.70;100144.50;5090397;28;20044;-61
2022/04/11 08:03:24;;;;;;;3.90;2.50;;;;;;;9.44;56.88;100150.44;5090498;28;20457;-61
2022/04/11 08:05:50;;;;;;;6.47;3.15;;;;;;;9.47;56.96;100151.19;5090355;28;20377;-61
2022/04/11 08:08:17;;;;;;;6.55;2.83;;;;;;;9.51;56.95;100162.38;5090201;28;20450;-61
2022/04/11 08:10:43;;;;;;;4.25;2.80;;;;;;;9.54;56.75;100162.25;5089717;28;20045;-60
2022/04/11 08:13:10;;;;;;;6.03;2.85;;;;;;;9.60;56.68;100154.06;5090138;28;20075;-62
2022/04/11 08:15:37;;;;;;;4.10;2.80;;;;;;;9.67;56.88;100157.25;5089998;28;20496;-61
2022/04/11 08:18:03;;;;;;;6.03;2.65;;;;;;;9.75;56.39;100149.88;5090098;28;20431;-62
2022/04/11 08:20:30;;;;;;;4.97;2.67;;;;;;;9.86;57.03;100156.38;5089847;28;20048;-61
2022/04/11 08:22:57;;;;;;;4.63;2.90;;;;;;;9.96;56.82;100147.16;5089878;28;20074;-63
2022/04/11 08:25:23;;;;;;;5.95;2.75;;;;;;;10.08;57.06;100155.34;5089890;28;20098;-61
2022/04/11 08:27:50;;;;;;;3.47;2.60;;;;;;;10.21;56.96;100164.34;5093926;28;20047;-61
2022/04/11 08:30:16;;;;;;;5.30;2.83;;;;;;;10.34;57.07;100150.59;5093263;28;20055;-61
2022/04/11 08:32:46;;;;;;;4.10;2.95;;;;;;;10.43;55.65;100151.00;5093805;28;20052;-62
2022/04/11 08:35:14;;;;;;;5.70;2.90;;;;;;;10.57;56.50;100154.75;5093860;28;20540;-61
2022/04/11 08:37:41;;;;;;;4.10;2.70;;;;;;;10.69;55.94;100158.53;5092284;28;20547;-63
2022/04/11 08:40:13;;;;;;;4.82;3.08;;;;;;;10.80;55.79;100148.31;5091807;28;20047;-62
2022/04/11 08:42:41;;;;;;;3.83;2.72;;;;;;;10.92;56.19;100145.97;5092037;28;20048;-62
2022/04/11 08:45:15;;;;;;;4.80;2.95;;;;;;;11.03;55.45;100154.16;5093028;28;20419;-63
2022/04/11 08:47:42;;;;;;;4.32;2.50;;;;;;;11.16;56.17;100149.09;5092024;28;20297;-61
2022/04/11 08:50:10;;;;;;;4.13;2.55;;;;;;;11.27;55.47;100145.03;5091723;28;20411;-61
2022/04/11 08:52:37;;;;;;;4.88;2.65;;;;;;;11.38;55.94;100139.16;5092025;28;20104;-62
2022/04/11 08:55:04;;;;;;;6.70;2.75;;;;;;;11.47;55.73;100136.88;5093249;28;20063;-62
2022/04/11 08:57:31;;;;;;;4.55;2.67;;;;;;;11.57;55.43;100139.88;5093265;28;20043;-61
2022/04/11 09:00:06;;;;;;;4.57;2.50;;;;;;;11.63;53.50;100141.34;5092993;28;20048;-61
2022/04/11 09:02:34;;;;;;;5.00;3.10;;;;;;;11.72;55.35;100140.81;5091709;28;20549;-62
2022/04/11 09:05:01;;;;;;;7.18;2.80;;;;;;;11.81;55.46;100144.72;5092869;28;20062;-61
2022/04/11 09:07:44;;;;;;;4.65;2.65;;;;;;;11.84;52.87;100136.63;5093038;28;20117;-61
2022/04/11 09:10:12;;;;;;;4.93;2.80;;;;;;;11.96;56.10;100136.88;5092815;28;20400;-61
2022/04/11 09:13:00;;;;;;;3.25;2.42;;;;;;;12.03;50.75;100134.75;5091629;28;20060;-61
2022/04/11 09:15:28;;;;;;;4.63;2.58;;;;;;;12.15;54.72;100138.50;5091742;28;20055;-62
2022/04/11 09:17:58;;;;;;;7.82;2.92;;;;;;;12.21;54.31;100130.22;5092938;28;20075;-61
2022/04/11 09:20:27;;;;;;;7.18;2.50;;;;;;;12.29;55.28;100130.63;5091265;28;20044;-61
2022/04/11 09:22:54;;;;;;;4.72;2.83;;;;;;;12.36;55.43;100134.63;5091405;28;20059;-62
2022/04/11 09:25:31;;;;;;;5.43;2.90;;;;;;;12.45;53.50;100132.38;5092419;28;20052;-61
2022/04/11 09:28:07;;;;;;;6.50;2.97;;;;;;;12.53;52.00;100132.78;5091313;28;20040;-60
2022/04/11 09:30:35;;;;;;;5.00;3.22;;;;;;;12.63;54.31;100127.78;5091399;28;20066;-60
2022/04/11 09:33:05;;;;;;;4.13;2.95;;;;;;;12.67;53.94;100124.00;5090974;28;20044;-59
2022/04/11 09:35:34;;;;;;;5.57;2.67;;;;;;;12.73;54.92;100128.06;5091390;28;20411;-60
2022/04/11 09:38:20;;;;;;;6.40;3.30;;;;;;;12.79;52.16;100125.09;5091713;28;20044;-61
2022/04/11 09:40:51;;;;;;;4.15;2.63;;;;;;;12.94;55.55;100122.44;5090979;28;20044;-60
2022/04/11 09:43:27;;;;;;;6.90;3.20;;;;;;;13.00;51.96;100122.91;5091086;28;20054;-59
2022/04/11 09:45:54;;;;;;;6.38;2.80;;;;;;;13.11;54.90;100124.03;5092165;28;20040;-60
2022/04/11 09:48:24;;;;;;;4.75;3.00;;;;;;;13.19;55.05;100120.94;5091001;28;20131;-60
2022/04/11 09:50:53;;;;;;;3.08;2.60;;;;;;;13.29;55.50;100122.91;5090461;28;20050;-61
2022/04/11 09:53:29;;;;;;;3.92;2.90;;;;;;;13.38;53.31;100121.47;5091818;28;20048;-61
2022/04/11 09:55:56;;;;;;;5.22;3.50;;;;;;;13.53;54.65;100119.69;5092111;28;20054;-60
2022/04/11 09:58:23;;;;;;;7.45;3.75;;;;;;;13.63;54.52;100119.94;5091861;28;20109;-61
2022/04/11 10:00:51;;;;;;;5.85;3.80;;;;;;;13.72;53.97;100113.19;5091708;28;20056;-61
2022/04/11 10:03:25;;;;;;;5.65;4.40;;;;;;;13.83;53.43;100109.84;5090431;28;20072;-60
2022/04/11 10:05:59;;;;;;;5.22;4.00;;;;;;;13.98;55.21;100109.81;5090633;28;20055;-62
2022/04/11 10:08:27;;;;;;;6.97;4.13;;;;;;;14.09;52.59;100111.75;5090617;28;20047;-62
2022/04/11 10:10:55;;;;;;;7.63;4.60;;;;;;;14.22;52.67;100114.44;5090257;28;20047;-60
2022/04/11 10:13:22;;;;;;;9.48;5.65;;;;;;;14.29;51.87;100099.84;5090227;28;20102;-61
2022/04/11 10:15:51;;;;;;;8.32;5.40;;;;;;;14.35;51.60;100101.22;5091651;28;20078;-61
2022/04/11 10:18:26;;;;;;;6.88;5.20;;;;;;;14.38;49.76;100099.22;5090370;28;20063;-61
2022/04/11 10:20:58;;;;;;;7.60;5.75;;;;;;;14.48;50.90;100103.88;5090056;28;20048;-60
2022/04/11 10:23:56;;;;;;;8.63;6.38;;;;;;;14.56;49.64;100096.25;5090182;28;20044;-60
2022/04/11 10:26:26;;;;;;;6.97;5.72;;;;;;;14.69;51.19;100096.28;5090339;28;20047;-61
2022/04/11 10:28:53;;;;;;;8.60;5.65;;;;;;;14.80;52.52;100093.75;5090397;28;20718;-61
2022/04/11 10:31:34;;;;;;;9.20;6.93;;;;;;;14.90;51.07;100091.31;5091019;28;20443;-62
2022/04/11 10:34:00;;;;;;;7.18;6.40;;;;;;;14.99;50.58;100092.44;5091248;28;20090;-60
2022/04/11 10:36:55;;;;;;;8.00;6.47;;;;;;;15.03;46.15;100071.91;5090987;28;20052;-61
2022/04/11 10:39:24;;;;;;;8.43;6.43;;;;;;;15.14;51.01;100074.63;5090933;28;20469;-61
2022/04/11 10:41:56;;;;;;;9.05;6.65;;;;;;;15.16;46.21;100083.31;5091057;28;20106;-60
2022/04/11 10:44:35;;;;;;;9.82;6.50;;;;;;;15.22;47.01;100071.44;5091106;28;20047;-61
2022/04/11 10:47:08;;;;;;;7.60;5.80;;;;;;;15.30;49.73;100069.09;5089608;28;20085;-60
2022/04/11 10:49:59;;;;;;;6.30;5.65;;;;;;;15.37;49.48;100065.00;5090255;28;20044;-61
2022/04/11 10:52:29;;;;;;;10.15;6.07;;;;;;;15.55;50.56;100071.75;5090703;28;20055;-60
2022/04/11 10:55:04;;;;;;;7.47;5.65;;;;;;;15.71;52.28;100068.81;5090807;28;20040;-60
2022/04/11 10:57:38;;;;;;;7.40;5.88;;;;;;;15.88;49.82;100070.22;5089599;28;20048;-60
2022/04/11 11:00:12;;;;;;;7.32;5.85;;;;;;;16.08;49.29;100068.78;5089371;28;20541;-62
2022/04/11 11:02:48;;;;;;;7.13;6.05;;;;;;;16.34;48.87;100057.13;5089118;28;20048;-60
2022/04/11 11:05:40;;;;;;;8.20;6.05;;;;;;;16.65;50.47;100055.59;5090634;28;20455;-61
2022/04/11 11:08:09;;;;;;;7.40;6.03;;;;;;;17.12;55.29;100056.47;5090833;28;20056;-62
2022/04/11 11:10:42;;;;;;;8.50;5.82;;;;;;;17.61;51.83;100048.97;5089384;28;20048;-61
2022/04/11 11:13:30;;;;;;;8.60;5.80;;;;;;;18.19;47.04;100050.44;5090847;28;20052;-62
2022/04/11 11:16:20;;;;;;;7.03;5.72;;;;;;;18.78;48.69;100049.91;5089165;28;20101;-62
2022/04/11 11:19:12;;;;;;;6.00;5.40;;;;;;;19.45;48.95;100049.44;5090348;28;20044;-65
2022/04/11 11:21:43;;;;;;;5.70;5.20;;;;;;;19.97;51.38;100042.97;5090509;28;20139;-61
2022/04/11 11:24:12;;;;;;;7.45;5.32;;;;;;;20.49;49.58;100039.13;5090453;28;20495;-61
2022/04/11 11:26:40;;;;;;;7.22;4.70;;;;;;;20.95;47.85;100033.03;5090388;28;20168;-61
2022/04/11 11:29:21;;;;;;;7.07;4.88;;;;;;;21.38;44.89;100033.34;5090175;28;20575;-64
2022/04/11 11:31:54;;;;;;;8.73;5.10;;;;;;;21.87;44.27;100026.81;5089268;28;20051;-61
2022/04/11 11:34:21;;;;;;;;;;;;;;;22.27;49.07;100024.56;5089577;28;20480;-62
2022/04/11 11:36:48;;;;;;;7.65;4.03;;;;;;;22.83;49.22;100015.34;5090325;28;20439;-61